sensor_id;sensor_type;location;lat;lon;timestamp;temperature;humidity
41447;DHT22;27185;52.040;4.490;2023-10-13T00:01:16;19.40;99.90
41447;DHT22;27185;52.040;4.490;2023-10-13T00:04:01;19.40;99.90
41447;DHT22;27185;52.040;4.490;2023-10-13T00:06:47;19.40;99.90
41447;DHT22;27185;52.040;4.490;2023-10-13T00:09:33;19.40;99.90
41447;DHT22;27185;52.040;4.490;2023-10-13T00:12:18;19.30;99.90
41447;DHT22;27185;52.040;4.490;2023-10-13T00:15:08;19.30;99.90
41447;DHT22;27185;52.040;4.490;2023-10-13T00:17:59;19.30;99.90
41447;DHT22;27185;52.040;4.490;2023-10-13T00:20:44;19.30;99.90
41447;DHT22;27185;52.040;4.490;2023-10-13T00:23:36;19.30;99.90
41447;DHT22;27185;52.040;4.490;2023-10-13T00:26:26;19.30;99.90
41447;DHT22;27185;52.040;4.490;2023-10-13T00:29:15;19.30;99.90
41447;DHT22;27185;52.040;4.490;2023-10-13T00:32:01;19.20;99.90
41447;DHT22;27185;52.040;4.490;2023-10-13T00:34:47;19.20;99.90
41447;DHT22;27185;52.040;4.490;2023-10-13T00:37:33;19.20;99.90
41447;DHT22;27185;52.040;4.490;2023-10-13T00:40:27;19.20;99.90
41447;DHT22;27185;52.040;4.490;2023-10-13T00:43:16;19.20;99.90
41447;DHT22;27185;52.040;4.490;2023-10-13T00:46:04;19.20;99.90
41447;DHT22;27185;52.040;4.490;2023-10-13T00:48:50;19.20;99.90
41447;DHT22;27185;52.040;4.490;2023-10-13T00:51:39;19.10;99.90
41447;DHT22;27185;52.040;4.490;2023-10-13T00:54:34;19.20;99.90
41447;DHT22;27185;52.040;4.490;2023-10-13T00:57:22;19.20;99.90
41447;DHT22;27185;52.040;4.490;2023-10-13T01:00:13;19.20;99.90
41447;DHT22;27185;52.040;4.490;2023-10-13T01:03:09;19.20;99.90
41447;DHT22;27185;52.040;4.490;2023-10-13T01:05:57;19.20;99.90
41447;DHT22;27185;52.040;4.490;2023-10-13T01:08:48;19.20;99.90
41447;DHT22;27185;52.040;4.490;2023-10-13T01:11:54;19.20;99.90
41447;DHT22;27185;52.040;4.490;2023-10-13T01:14:40;19.20;99.90
41447;DHT22;27185;52.040;4.490;2023-10-13T01:17:26;19.20;99.90
41447;DHT22;27185;52.040;4.490;2023-10-13T01:20:17;19.20;99.90
41447;DHT22;27185;52.040;4.490;2023-10-13T01:23:12;19.20;99.90
41447;DHT22;27185;52.040;4.490;2023-10-13T01:26:04;19.20;99.90
41447;DHT22;27185;52.040;4.490;2023-10-13T01:28:52;19.20;99.90
41447;DHT22;27185;52.040;4.490;2023-10-13T01:31:43;19.20;99.90
41447;DHT22;27185;52.040;4.490;2023-10-13T01:34:32;19.10;99.90
41447;DHT22;27185;52.040;4.490;2023-10-13T01:37:18;19.20;99.90
41447;DHT22;27185;52.040;4.490;2023-10-13T01:40:05;19.20;99.90
41447;DHT22;27185;52.040;4.490;2023-10-13T01:42:51;19.20;99.90
41447;DHT22;27185;52.040;4.490;2023-10-13T01:45:40;19.20;99.90
41447;DHT22;27185;52.040;4.490;2023-10-13T01:48:35;19.20;99.90
41447;DHT22;27185;52.040;4.490;2023-10-13T01:51:24;19.20;99.90
41447;DHT22;27185;52.040;4.490;2023-10-13T01:54:13;19.20;99.90
41447;DHT22;27185;52.040;4.490;2023-10-13T01:57:00;19.20;99.90
41447;DHT22;27185;52.040;4.490;2023-10-13T01:59:49;19.20;99.90
41447;DHT22;27185;52.040;4.490;2023-10-13T02:02:35;19.20;99.90
41447;DHT22;27185;52.040;4.490;2023-10-13T02:05:23;19.20;99.90
41447;DHT22;27185;52.040;4.490;2023-10-13T02:08:17;19.20;99.90
41447;DHT22;27185;52.040;4.490;2023-10-13T02:11:09;19.20;99.90
41447;DHT22;27185;52.040;4.490;2023-10-13T02:13:55;19.20;99.90
41447;DHT22;27185;52.040;4.490;2023-10-13T02:16:42;19.20;99.90
41447;DHT22;27185;52.040;4.490;2023-10-13T02:19:32;19.10;99.90
41447;DHT22;27185;52.040;4.490;2023-10-13T02:22:17;19.10;99.90
41447;DHT22;27185;52.040;4.490;2023-10-13T02:25:13;19.10;99.90
41447;DHT22;27185;52.040;4.490;2023-10-13T02:28:02;19.10;99.90
41447;DHT22;27185;52.040;4.490;2023-10-13T02:30:53;19.10;99.90
41447;DHT22;27185;52.040;4.490;2023-10-13T02:33:38;19.10;99.90
41447;DHT22;27185;52.040;4.490;2023-10-13T02:36:30;19.10;99.90
41447;DHT22;27185;52.040;4.490;2023-10-13T02:39:21;19.10;99.90
41447;DHT22;27185;52.040;4.490;2023-10-13T02:42:10;19.10;99.90
41447;DHT22;27185;52.040;4.490;2023-10-13T02:45:09;19.10;99.90
41447;DHT22;27185;52.040;4.490;2023-10-13T02:47:57;19.10;99.90
41447;DHT22;27185;52.040;4.490;2023-10-13T02:50:59;19.10;99.90
41447;DHT22;27185;52.040;4.490;2023-10-13T02:53:51;19.10;99.90
41447;DHT22;27185;52.040;4.490;2023-10-13T02:56:38;19.10;99.90
41447;DHT22;27185;52.040;4.490;2023-10-13T02:59:44;19.10;99.90
41447;DHT22;27185;52.040;4.490;2023-10-13T03:02:32;19.10;99.90
41447;DHT22;27185;52.040;4.490;2023-10-13T03:05:23;19.00;99.90
41447;DHT22;27185;52.040;4.490;2023-10-13T03:08:09;19.00;99.90
41447;DHT22;27185;52.040;4.490;2023-10-13T03:10:56;19.00;99.90
41447;DHT22;27185;52.040;4.490;2023-10-13T03:13:42;19.00;99.90
41447;DHT22;27185;52.040;4.490;2023-10-13T03:16:30;19.00;99.90
41447;DHT22;27185;52.040;4.490;2023-10-13T03:19:15;19.00;99.90
41447;DHT22;27185;52.040;4.490;2023-10-13T03:22:06;19.00;99.90
41447;DHT22;27185;52.040;4.490;2023-10-13T03:24:57;19.00;99.90
41447;DHT22;27185;52.040;4.490;2023-10-13T03:27:53;19.00;99.90
41447;DHT22;27185;52.040;4.490;2023-10-13T03:30:38;19.00;99.90
41447;DHT22;27185;52.040;4.490;2023-10-13T03:33:26;19.00;99.90
41447;DHT22;27185;52.040;4.490;2023-10-13T03:36:13;19.00;99.90
41447;DHT22;27185;52.040;4.490;2023-10-13T03:39:19;18.90;99.90
41447;DHT22;27185;52.040;4.490;2023-10-13T03:42:07;18.90;99.90
41447;DHT22;27185;52.040;4.490;2023-10-13T03:44:57;19.00;99.90
41447;DHT22;27185;52.040;4.490;2023-10-13T03:47:42;18.90;99.90
41447;DHT22;27185;52.040;4.490;2023-10-13T03:50:31;18.90;99.90
41447;DHT22;27185;52.040;4.490;2023-10-13T03:53:17;18.80;99.90
41447;DHT22;27185;52.040;4.490;2023-10-13T03:56:06;18.70;99.90
41447;DHT22;27185;52.040;4.490;2023-10-13T03:58:59;18.80;99.90
41447;DHT22;27185;52.040;4.490;2023-10-13T04:02:03;18.70;99.90
41447;DHT22;27185;52.040;4.490;2023-10-13T04:04:57;18.70;99.90
41447;DHT22;27185;52.040;4.490;2023-10-13T04:07:43;18.70;99.90
41447;DHT22;27185;52.040;4.490;2023-10-13T04:10:48;18.70;99.90
41447;DHT22;27185;52.040;4.490;2023-10-13T04:13:39;18.70;99.90
41447;DHT22;27185;52.040;4.490;2023-10-13T04:16:43;18.80;99.90
41447;DHT22;27185;52.040;4.490;2023-10-13T04:19:39;18.70;99.90
41447;DHT22;27185;52.040;4.490;2023-10-13T04:22:44;18.80;99.90
41447;DHT22;27185;52.040;4.490;2023-10-13T04:25:33;18.80;99.90
41447;DHT22;27185;52.040;4.490;2023-10-13T04:28:37;18.80;99.90
41447;DHT22;27185;52.040;4.490;2023-10-13T04:31:25;18.80;99.90
41447;DHT22;27185;52.040;4.490;2023-10-13T04:34:30;18.90;99.90
41447;DHT22;27185;52.040;4.490;2023-10-13T04:37:25;18.90;99.90
41447;DHT22;27185;52.040;4.490;2023-10-13T04:40:19;19.00;99.90
41447;DHT22;27185;52.040;4.490;2023-10-13T04:43:10;19.00;99.90
41447;DHT22;27185;52.040;4.490;2023-10-13T04:46:14;19.00;99.90
41447;DHT22;27185;52.040;4.490;2023-10-13T04:49:21;19.00;99.90
41447;DHT22;27185;52.040;4.490;2023-10-13T04:52:13;19.10;99.90
41447;DHT22;27185;52.040;4.490;2023-10-13T04:55:12;19.10;99.90
41447;DHT22;27185;52.040;4.490;2023-10-13T04:58:16;19.10;99.90
41447;DHT22;27185;52.040;4.490;2023-10-13T05:01:21;19.10;99.90
41447;DHT22;27185;52.040;4.490;2023-10-13T05:04:10;19.10;99.90
41447;DHT22;27185;52.040;4.490;2023-10-13T05:07:15;19.20;99.90
41447;DHT22;27185;52.040;4.490;2023-10-13T05:10:19;19.20;99.90
41447;DHT22;27185;52.040;4.490;2023-10-13T05:13:23;19.20;99.90
41447;DHT22;27185;52.040;4.490;2023-10-13T05:16:27;19.10;99.90
41447;DHT22;27185;52.040;4.490;2023-10-13T05:19:31;19.10;99.90
41447;DHT22;27185;52.040;4.490;2023-10-13T05:22:36;19.10;99.90
41447;DHT22;27185;52.040;4.490;2023-10-13T05:25:40;19.00;99.90
41447;DHT22;27185;52.040;4.490;2023-10-13T05:28:44;19.00;99.90
41447;DHT22;27185;52.040;4.490;2023-10-13T05:31:48;18.90;99.90
41447;DHT22;27185;52.040;4.490;2023-10-13T05:34:52;18.90;99.90
41447;DHT22;27185;52.040;4.490;2023-10-13T05:37:56;18.80;99.90
41447;DHT22;27185;52.040;4.490;2023-10-13T05:41:03;18.80;99.90
41447;DHT22;27185;52.040;4.490;2023-10-13T05:44:07;18.80;99.90
41447;DHT22;27185;52.040;4.490;2023-10-13T05:47:11;18.80;99.90
41447;DHT22;27185;52.040;4.490;2023-10-13T05:50:15;18.80;99.90
41447;DHT22;27185;52.040;4.490;2023-10-13T05:53:06;18.70;99.90
41447;DHT22;27185;52.040;4.490;2023-10-13T05:56:00;18.70;99.90
41447;DHT22;27185;52.040;4.490;2023-10-13T05:59:04;18.70;99.90
41447;DHT22;27185;52.040;4.490;2023-10-13T06:02:08;18.70;99.90
41447;DHT22;27185;52.040;4.490;2023-10-13T06:05:13;18.70;99.90
41447;DHT22;27185;52.040;4.490;2023-10-13T06:08:17;18.70;99.90
41447;DHT22;27185;52.040;4.490;2023-10-13T06:11:21;18.80;99.90
41447;DHT22;27185;52.040;4.490;2023-10-13T06:14:25;18.70;99.90
41447;DHT22;27185;52.040;4.490;2023-10-13T06:17:29;18.80;99.90
41447;DHT22;27185;52.040;4.490;2023-10-13T06:20:39;18.80;99.90
41447;DHT22;27185;52.040;4.490;2023-10-13T06:23:43;18.90;99.90
41447;DHT22;27185;52.040;4.490;2023-10-13T06:26:47;18.90;99.90
41447;DHT22;27185;52.040;4.490;2023-10-13T06:29:51;18.90;99.90
41447;DHT22;27185;52.040;4.490;2023-10-13T06:32:39;19.00;99.90
41447;DHT22;27185;52.040;4.490;2023-10-13T06:35:27;19.10;99.90
41447;DHT22;27185;52.040;4.490;2023-10-13T06:38:12;19.10;99.90
41447;DHT22;27185;52.040;4.490;2023-10-13T06:41:07;19.10;99.90
41447;DHT22;27185;52.040;4.490;2023-10-13T06:43:53;19.20;99.90
41447;DHT22;27185;52.040;4.490;2023-10-13T06:46:44;19.30;99.90
41447;DHT22;27185;52.040;4.490;2023-10-13T06:49:30;19.40;99.90
41447;DHT22;27185;52.040;4.490;2023-10-13T06:52:18;19.40;99.90
41447;DHT22;27185;52.040;4.490;2023-10-13T06:55:04;19.50;99.90
41447;DHT22;27185;52.040;4.490;2023-10-13T06:57:51;19.50;99.90
41447;DHT22;27185;52.040;4.490;2023-10-13T07:00:36;19.60;99.90
41447;DHT22;27185;52.040;4.490;2023-10-13T07:03:24;19.60;99.90
41447;DHT22;27185;52.040;4.490;2023-10-13T07:06:10;19.70;99.90
41447;DHT22;27185;52.040;4.490;2023-10-13T07:09:03;19.70;99.90
41447;DHT22;27185;52.040;4.490;2023-10-13T07:11:50;19.70;99.90
41447;DHT22;27185;52.040;4.490;2023-10-13T07:14:38;19.80;99.90
41447;DHT22;27185;52.040;4.490;2023-10-13T07:17:23;19.80;99.90
41447;DHT22;27185;52.040;4.490;2023-10-13T07:20:09;19.80;99.90
41447;DHT22;27185;52.040;4.490;2023-10-13T07:23:01;19.80;99.90
41447;DHT22;27185;52.040;4.490;2023-10-13T07:25:54;19.90;99.90
41447;DHT22;27185;52.040;4.490;2023-10-13T07:28:40;19.90;99.90
41447;DHT22;27185;52.040;4.490;2023-10-13T07:31:29;19.90;99.90
41447;DHT22;27185;52.040;4.490;2023-10-13T07:34:14;20.00;99.90
41447;DHT22;27185;52.040;4.490;2023-10-13T07:37:13;20.00;99.90
41447;DHT22;27185;52.040;4.490;2023-10-13T07:40:01;20.10;99.90
41447;DHT22;27185;52.040;4.490;2023-10-13T07:42:55;20.20;99.90
41447;DHT22;27185;52.040;4.490;2023-10-13T07:45:46;20.20;99.90
41447;DHT22;27185;52.040;4.490;2023-10-13T07:48:37;20.20;99.90
41447;DHT22;27185;52.040;4.490;2023-10-13T07:51:23;20.30;99.90
41447;DHT22;27185;52.040;4.490;2023-10-13T07:54:13;20.40;99.90
41447;DHT22;27185;52.040;4.490;2023-10-13T07:57:07;20.40;99.90
41447;DHT22;27185;52.040;4.490;2023-10-13T07:59:55;20.40;99.90
41447;DHT22;27185;52.040;4.490;2023-10-13T08:03:01;20.50;99.90
41447;DHT22;27185;52.040;4.490;2023-10-13T08:06:01;20.60;99.90
41447;DHT22;27185;52.040;4.490;2023-10-13T08:08:56;20.60;99.90
41447;DHT22;27185;52.040;4.490;2023-10-13T08:11:53;20.70;99.90
41447;DHT22;27185;52.040;4.490;2023-10-13T08:14:40;20.70;99.90
41447;DHT22;27185;52.040;4.490;2023-10-13T08:17:26;20.70;99.90
41447;DHT22;27185;52.040;4.490;2023-10-13T08:20:16;20.80;99.90
41447;DHT22;27185;52.040;4.490;2023-10-13T08:23:02;20.80;99.90
41447;DHT22;27185;52.040;4.490;2023-10-13T08:25:58;20.80;99.90
41447;DHT22;27185;52.040;4.490;2023-10-13T08:29:03;20.80;99.90
41447;DHT22;27185;52.040;4.490;2023-10-13T08:32:04;20.90;99.90
41447;DHT22;27185;52.040;4.490;2023-10-13T08:35:00;20.90;99.90
41447;DHT22;27185;52.040;4.490;2023-10-13T08:37:48;20.90;99.90
41447;DHT22;27185;52.040;4.490;2023-10-13T08:40:37;20.90;99.90
41447;DHT22;27185;52.040;4.490;2023-10-13T08:43:42;20.90;99.90
41447;DHT22;27185;52.040;4.490;2023-10-13T08:46:37;21.00;99.90
41447;DHT22;27185;52.040;4.490;2023-10-13T08:49:46;21.00;99.90
41447;DHT22;27185;52.040;4.490;2023-10-13T08:52:38;21.00;99.90
41447;DHT22;27185;52.040;4.490;2023-10-13T08:55:34;21.00;99.90
41447;DHT22;27185;52.040;4.490;2023-10-13T08:58:35;21.00;99.90
41447;DHT22;27185;52.040;4.490;2023-10-13T09:01:39;21.00;99.90
41447;DHT22;27185;52.040;4.490;2023-10-13T09:04:33;21.10;99.90
41447;DHT22;27185;52.040;4.490;2023-10-13T09:07:21;21.20;99.90
41447;DHT22;27185;52.040;4.490;2023-10-13T09:10:10;21.30;99.90
41447;DHT22;27185;52.040;4.490;2023-10-13T09:13:16;21.30;99.90
41447;DHT22;27185;52.040;4.490;2023-10-13T09:16:13;21.40;99.90
41447;DHT22;27185;52.040;4.490;2023-10-13T09:19:22;21.50;99.90
41447;DHT22;27185;52.040;4.490;2023-10-13T09:22:07;21.50;99.90
41447;DHT22;27185;52.040;4.490;2023-10-13T09:24:59;21.60;99.90
41447;DHT22;27185;52.040;4.490;2023-10-13T09:27:48;21.70;99.90
41447;DHT22;27185;52.040;4.490;2023-10-13T09:30:48;21.70;99.90
41447;DHT22;27185;52.040;4.490;2023-10-13T09:33:33;21.70;99.90
41447;DHT22;27185;52.040;4.490;2023-10-13T09:36:35;21.80;99.90
41447;DHT22;27185;52.040;4.490;2023-10-13T09:39:25;21.80;99.90
41447;DHT22;27185;52.040;4.490;2023-10-13T09:42:29;21.80;99.90
41447;DHT22;27185;52.040;4.490;2023-10-13T09:45:15;21.90;99.90
41447;DHT22;27185;52.040;4.490;2023-10-13T09:48:03;22.00;99.90
41447;DHT22;27185;52.040;4.490;2023-10-13T09:50:54;22.10;99.90
41447;DHT22;27185;52.040;4.490;2023-10-13T09:53:49;22.20;99.90
41447;DHT22;27185;52.040;4.490;2023-10-13T09:56:50;22.10;99.90
41447;DHT22;27185;52.040;4.490;2023-10-13T10:00:00;22.20;99.90
41447;DHT22;27185;52.040;4.490;2023-10-13T10:02:53;22.30;99.90
41447;DHT22;27185;52.040;4.490;2023-10-13T10:05:54;22.30;99.90
41447;DHT22;27185;52.040;4.490;2023-10-13T10:08:45;22.40;99.90
41447;DHT22;27185;52.040;4.490;2023-10-13T10:18:22;22.60;99.90
41447;DHT22;27185;52.040;4.490;2023-10-13T10:21:10;22.70;99.90
41447;DHT22;27185;52.040;4.490;2023-10-13T10:23:57;22.80;99.90
41447;DHT22;27185;52.040;4.490;2023-10-13T10:26:53;23.00;99.90
41447;DHT22;27185;52.040;4.490;2023-10-13T10:29:38;23.00;99.90
41447;DHT22;27185;52.040;4.490;2023-10-13T10:32:36;23.10;99.90
41447;DHT22;27185;52.040;4.490;2023-10-13T10:35:23;23.20;99.90
41447;DHT22;27185;52.040;4.490;2023-10-13T10:38:09;23.20;99.90
41447;DHT22;27185;52.040;4.490;2023-10-13T10:41:28;23.10;99.90
41447;DHT22;27185;52.040;4.490;2023-10-13T10:44:29;23.10;99.90
41447;DHT22;27185;52.040;4.490;2023-10-13T10:47:20;23.00;99.90
41447;DHT22;27185;52.040;4.490;2023-10-13T10:50:27;23.00;99.90
41447;DHT22;27185;52.040;4.490;2023-10-13T10:53:25;23.00;99.90
41447;DHT22;27185;52.040;4.490;2023-10-13T10:56:28;23.00;99.90
41447;DHT22;27185;52.040;4.490;2023-10-13T10:59:19;23.10;99.90
41447;DHT22;27185;52.040;4.490;2023-10-13T11:02:07;23.10;99.90
41447;DHT22;27185;52.040;4.490;2023-10-13T11:04:55;23.10;99.90
41447;DHT22;27185;52.040;4.490;2023-10-13T11:07:46;23.10;99.90
41447;DHT22;27185;52.040;4.490;2023-10-13T11:10:46;23.20;99.90
41447;DHT22;27185;52.040;4.490;2023-10-13T11:13:44;23.20;99.90
41447;DHT22;27185;52.040;4.490;2023-10-13T11:16:36;23.10;99.90
41447;DHT22;27185;52.040;4.490;2023-10-13T11:19:39;23.20;99.90
41447;DHT22;27185;52.040;4.490;2023-10-13T11:22:26;23.20;99.90
41447;DHT22;27185;52.040;4.490;2023-10-13T11:25:29;23.20;99.90
41447;DHT22;27185;52.040;4.490;2023-10-13T11:28:16;23.30;99.90
41447;DHT22;27185;52.040;4.490;2023-10-13T11:31:02;23.30;99.90
41447;DHT22;27185;52.040;4.490;2023-10-13T11:34:04;23.30;99.90
41447;DHT22;27185;52.040;4.490;2023-10-13T11:36:52;23.40;99.90
41447;DHT22;27185;52.040;4.490;2023-10-13T11:39:38;23.40;99.90
41447;DHT22;27185;52.040;4.490;2023-10-13T11:42:27;23.40;99.90
41447;DHT22;27185;52.040;4.490;2023-10-13T11:45:14;23.40;99.90
41447;DHT22;27185;52.040;4.490;2023-10-13T11:48:16;23.50;99.90
41447;DHT22;27185;52.040;4.490;2023-10-13T11:51:03;23.50;99.90
41447;DHT22;27185;52.040;4.490;2023-10-13T11:54:02;23.50;99.90
41447;DHT22;27185;52.040;4.490;2023-10-13T11:56:49;23.60;99.90
41447;DHT22;27185;52.040;4.490;2023-10-13T11:59:34;23.50;99.90
41447;DHT22;27185;52.040;4.490;2023-10-13T12:02:26;23.50;99.90
41447;DHT22;27185;52.040;4.490;2023-10-13T12:05:11;23.50;99.90
41447;DHT22;27185;52.040;4.490;2023-10-13T12:07:57;23.50;99.90
41447;DHT22;27185;52.040;4.490;2023-10-13T12:10:49;23.50;99.90
41447;DHT22;27185;52.040;4.490;2023-10-13T12:13:45;23.50;99.90
41447;DHT22;27185;52.040;4.490;2023-10-13T12:16:30;23.50;99.90
41447;DHT22;27185;52.040;4.490;2023-10-13T12:19:20;23.50;99.90
41447;DHT22;27185;52.040;4.490;2023-10-13T12:22:09;23.50;99.90
41447;DHT22;27185;52.040;4.490;2023-10-13T12:25:02;23.50;99.90
41447;DHT22;27185;52.040;4.490;2023-10-13T12:28:04;23.40;99.90
41447;DHT22;27185;52.040;4.490;2023-10-13T12:31:04;23.50;99.90
41447;DHT22;27185;52.040;4.490;2023-10-13T12:33:53;23.50;99.90
41447;DHT22;27185;52.040;4.490;2023-10-13T12:36:39;23.40;99.90
41447;DHT22;27185;52.040;4.490;2023-10-13T12:39:38;23.30;99.90
41447;DHT22;27185;52.040;4.490;2023-10-13T12:42:42;23.10;99.90
41447;DHT22;27185;52.040;4.490;2023-10-13T12:45:47;23.00;99.90
41447;DHT22;27185;52.040;4.490;2023-10-13T12:48:52;22.90;99.90
41447;DHT22;27185;52.040;4.490;2023-10-13T12:51:52;22.90;99.90
41447;DHT22;27185;52.040;4.490;2023-10-13T12:54:38;22.80;99.90
41447;DHT22;27185;52.040;4.490;2023-10-13T12:57:24;22.80;99.90
41447;DHT22;27185;52.040;4.490;2023-10-13T13:00:11;22.80;99.90
41447;DHT22;27185;52.040;4.490;2023-10-13T13:03:09;22.70;99.90
41447;DHT22;27185;52.040;4.490;2023-10-13T13:05:59;22.60;99.90
41447;DHT22;27185;52.040;4.490;2023-10-13T13:08:44;22.50;99.90
41447;DHT22;27185;52.040;4.490;2023-10-13T13:11:31;22.60;99.90
41447;DHT22;27185;52.040;4.490;2023-10-13T13:14:17;22.50;99.90
41447;DHT22;27185;52.040;4.490;2023-10-13T13:17:03;22.60;99.90
41447;DHT22;27185;52.040;4.490;2023-10-13T13:19:51;22.60;99.90
41447;DHT22;27185;52.040;4.490;2023-10-13T13:22:39;22.60;99.90
41447;DHT22;27185;52.040;4.490;2023-10-13T13:25:25;22.70;99.90
41447;DHT22;27185;52.040;4.490;2023-10-13T13:28:15;22.70;99.90
41447;DHT22;27185;52.040;4.490;2023-10-13T13:31:01;22.70;99.90
41447;DHT22;27185;52.040;4.490;2023-10-13T13:33:46;22.80;99.90
41447;DHT22;27185;52.040;4.490;2023-10-13T13:36:32;22.80;99.90
41447;DHT22;27185;52.040;4.490;2023-10-13T13:39:19;22.80;99.90
41447;DHT22;27185;52.040;4.490;2023-10-13T13:42:14;22.70;99.90
41447;DHT22;27185;52.040;4.490;2023-10-13T13:45:02;22.70;99.90
41447;DHT22;27185;52.040;4.490;2023-10-13T13:47:49;22.60;99.90
41447;DHT22;27185;52.040;4.490;2023-10-13T13:50:41;22.50;99.90
41447;DHT22;27185;52.040;4.490;2023-10-13T13:53:26;22.40;99.90
41447;DHT22;27185;52.040;4.490;2023-10-13T13:56:12;22.20;99.90
41447;DHT22;27185;52.040;4.490;2023-10-13T13:59:01;22.00;99.90
41447;DHT22;27185;52.040;4.490;2023-10-13T14:01:53;21.70;99.90
41447;DHT22;27185;52.040;4.490;2023-10-13T14:04:38;21.40;99.90
41447;DHT22;27185;52.040;4.490;2023-10-13T14:07:24;21.20;99.90
41447;DHT22;27185;52.040;4.490;2023-10-13T14:10:09;21.10;99.90
41447;DHT22;27185;52.040;4.490;2023-10-13T14:13:15;20.90;99.90
41447;DHT22;27185;52.040;4.490;2023-10-13T14:16:01;20.60;99.90
41447;DHT22;27185;52.040;4.490;2023-10-13T14:18:51;20.50;99.90
41447;DHT22;27185;52.040;4.490;2023-10-13T14:21:37;20.50;99.90
41447;DHT22;27185;52.040;4.490;2023-10-13T14:24:23;20.40;99.90
41447;DHT22;27185;52.040;4.490;2023-10-13T14:27:18;20.40;99.90
41447;DHT22;27185;52.040;4.490;2023-10-13T14:30:06;20.30;99.90
41447;DHT22;27185;52.040;4.490;2023-10-13T14:32:52;20.20;99.90
41447;DHT22;27185;52.040;4.490;2023-10-13T14:35:38;20.20;99.90
41447;DHT22;27185;52.040;4.490;2023-10-13T14:38:23;20.20;99.90
41447;DHT22;27185;52.040;4.490;2023-10-13T14:41:09;20.20;99.90
41447;DHT22;27185;52.040;4.490;2023-10-13T14:43:56;20.10;99.90
41447;DHT22;27185;52.040;4.490;2023-10-13T14:46:50;20.10;99.90
41447;DHT22;27185;52.040;4.490;2023-10-13T14:49:40;20.10;99.90
41447;DHT22;27185;52.040;4.490;2023-10-13T14:52:26;20.10;99.90
41447;DHT22;27185;52.040;4.490;2023-10-13T14:55:12;20.10;99.90
41447;DHT22;27185;52.040;4.490;2023-10-13T14:58:04;20.10;99.90
41447;DHT22;27185;52.040;4.490;2023-10-13T15:00:53;20.10;99.90
41447;DHT22;27185;52.040;4.490;2023-10-13T15:03:40;20.10;99.90
41447;DHT22;27185;52.040;4.490;2023-10-13T15:06:27;20.10;99.90
41447;DHT22;27185;52.040;4.490;2023-10-13T15:09:15;20.10;99.90
41447;DHT22;27185;52.040;4.490;2023-10-13T15:12:09;20.10;99.90
41447;DHT22;27185;52.040;4.490;2023-10-13T15:14:55;20.10;99.90
41447;DHT22;27185;52.040;4.490;2023-10-13T15:17:42;20.10;99.90
41447;DHT22;27185;52.040;4.490;2023-10-13T15:20:28;20.10;99.90
41447;DHT22;27185;52.040;4.490;2023-10-13T15:23:14;20.10;99.90
41447;DHT22;27185;52.040;4.490;2023-10-13T15:26:09;20.10;99.90
41447;DHT22;27185;52.040;4.490;2023-10-13T15:28:55;20.20;99.90
41447;DHT22;27185;52.040;4.490;2023-10-13T15:31:44;20.20;99.90
41447;DHT22;27185;52.040;4.490;2023-10-13T15:34:49;20.10;99.90
41447;DHT22;27185;52.040;4.490;2023-10-13T15:37:35;20.20;99.90
41447;DHT22;27185;52.040;4.490;2023-10-13T15:40:21;20.10;99.90
41447;DHT22;27185;52.040;4.490;2023-10-13T15:43:06;20.20;99.90
41447;DHT22;27185;52.040;4.490;2023-10-13T15:45:52;20.20;99.90
41447;DHT22;27185;52.040;4.490;2023-10-13T15:48:37;20.30;99.90
41447;DHT22;27185;52.040;4.490;2023-10-13T15:51:23;20.30;99.90
41447;DHT22;27185;52.040;4.490;2023-10-13T15:54:10;20.30;99.90
41447;DHT22;27185;52.040;4.490;2023-10-13T15:57:01;20.40;99.90
41447;DHT22;27185;52.040;4.490;2023-10-13T15:59:47;20.40;99.90
41447;DHT22;27185;52.040;4.490;2023-10-13T16:02:32;20.50;99.90
41447;DHT22;27185;52.040;4.490;2023-10-13T16:05:18;20.40;99.90
41447;DHT22;27185;52.040;4.490;2023-10-13T16:08:05;20.50;99.90
41447;DHT22;27185;52.040;4.490;2023-10-13T16:11:03;20.40;99.90
41447;DHT22;27185;52.040;4.490;2023-10-13T16:13:52;20.50;99.90
41447;DHT22;27185;52.040;4.490;2023-10-13T16:16:38;20.50;99.90
41447;DHT22;27185;52.040;4.490;2023-10-13T16:19:23;20.50;99.90
41447;DHT22;27185;52.040;4.490;2023-10-13T16:22:09;20.60;99.90
41447;DHT22;27185;52.040;4.490;2023-10-13T16:24:57;20.60;99.90
41447;DHT22;27185;52.040;4.490;2023-10-13T16:27:43;20.60;99.90
41447;DHT22;27185;52.040;4.490;2023-10-13T16:30:28;20.60;99.90
41447;DHT22;27185;52.040;4.490;2023-10-13T16:33:14;20.70;99.90
41447;DHT22;27185;52.040;4.490;2023-10-13T16:36:00;20.70;99.90
41447;DHT22;27185;52.040;4.490;2023-10-13T16:38:45;20.70;99.90
41447;DHT22;27185;52.040;4.490;2023-10-13T16:41:31;20.70;99.90
41447;DHT22;27185;52.040;4.490;2023-10-13T16:44:17;20.70;99.90
41447;DHT22;27185;52.040;4.490;2023-10-13T16:47:02;20.70;99.90
41447;DHT22;27185;52.040;4.490;2023-10-13T16:49:49;20.70;99.90
41447;DHT22;27185;52.040;4.490;2023-10-13T16:52:35;20.70;99.90
41447;DHT22;27185;52.040;4.490;2023-10-13T16:55:20;20.60;99.90
41447;DHT22;27185;52.040;4.490;2023-10-13T16:58:06;20.70;99.90
41447;DHT22;27185;52.040;4.490;2023-10-13T17:00:51;20.60;99.90
41447;DHT22;27185;52.040;4.490;2023-10-13T17:03:38;20.60;99.90
41447;DHT22;27185;52.040;4.490;2023-10-13T17:06:24;20.60;99.90
41447;DHT22;27185;52.040;4.490;2023-10-13T17:09:09;20.60;99.90
41447;DHT22;27185;52.040;4.490;2023-10-13T17:11:57;20.60;99.90
41447;DHT22;27185;52.040;4.490;2023-10-13T17:14:42;20.60;99.90
41447;DHT22;27185;52.040;4.490;2023-10-13T17:17:29;20.60;99.90
41447;DHT22;27185;52.040;4.490;2023-10-13T17:20:16;20.60;99.90
41447;DHT22;27185;52.040;4.490;2023-10-13T17:23:08;20.50;99.90
41447;DHT22;27185;52.040;4.490;2023-10-13T17:25:53;20.40;99.90
41447;DHT22;27185;52.040;4.490;2023-10-13T17:28:40;20.40;99.90
41447;DHT22;27185;52.040;4.490;2023-10-13T17:31:26;20.40;99.90
41447;DHT22;27185;52.040;4.490;2023-10-13T17:34:17;20.40;99.90
41447;DHT22;27185;52.040;4.490;2023-10-13T17:37:02;20.30;99.90
41447;DHT22;27185;52.040;4.490;2023-10-13T17:39:48;20.30;99.90
41447;DHT22;27185;52.040;4.490;2023-10-13T17:42:34;20.30;99.90
41447;DHT22;27185;52.040;4.490;2023-10-13T17:45:20;20.30;99.90
41447;DHT22;27185;52.040;4.490;2023-10-13T17:48:06;20.30;99.90
41447;DHT22;27185;52.040;4.490;2023-10-13T17:50:52;20.30;99.90
41447;DHT22;27185;52.040;4.490;2023-10-13T17:53:37;20.30;99.90
41447;DHT22;27185;52.040;4.490;2023-10-13T17:56:23;20.30;99.90
41447;DHT22;27185;52.040;4.490;2023-10-13T17:59:09;20.30;99.90
41447;DHT22;27185;52.040;4.490;2023-10-13T18:01:57;20.30;99.90
41447;DHT22;27185;52.040;4.490;2023-10-13T18:04:43;20.30;99.90
41447;DHT22;27185;52.040;4.490;2023-10-13T18:07:29;20.30;99.90
41447;DHT22;27185;52.040;4.490;2023-10-13T18:10:14;20.30;99.90